Milwaukee, WI (53219)

12:35 PM CDT on July 03, 2015 (GMT -0500)
Jans Embroidery | | Change Station
CLOSE
Current Station
Personal Weather Station
Location: West Allis, WI
Elevation: 738 ft
Nearby Weather Stations

Elev 738 ft 43.00 °N, 88.00 °W | Updated 6 seconds ago

Mostly Cloudy
Mostly Cloudy
76.6 °F
Feels Like 78 °F
N
0.0
Wind Variable Wind from SE
Gusts 4.9 mph

Today
High -- | Low -- °F
--% Chance of Precip.
Yesterday
High -- | Low -- °F
Precip. -- in
5:17 AM 8:34 PM
Waning Gibbous, 96% visible
Pressure 29.99 in
Visibility 10.0 miles
Clouds Few 3000 ft
Mostly Cloudy 25000 ft
Heat Index 78 °F
Dew Point 48 °F
Humidity 36%
Rainfall 0.00 in
Snow Depth Not available.
UV 6 out of 12
Pollen 3.10 out of 12
Air Quality Not available.
Flu Activity Not available.
METAR KMKE 031652Z 09006KT 10SM FEW030 BKN250 22/12 A2999 RMK AO2 SLP154 T02170122

More Conditions Fewer Conditions

Pressure 29.99 in
Visibility 10.0 miles
Clouds Few 3000 ft
Mostly Cloudy 25000 ft
Heat Index 78 °F
Dew Point 48 °F
Humidity 36%
Rainfall 0.00 in
Snow Depth Not available.
UV 6 out of 12
Pollen 3.10 out of 12
Air Quality Not available.
Flu Activity Not available.
METAR KMKE 031652Z 09006KT 10SM FEW030 BKN250 22/12 A2999 RMK AO2 SLP154 T02170122

More Conditions Fewer Conditions

10-Day Weather Forecast

×

Almanac

Astronomy

Jul. 03, 2015 Rise Set
Actual Time
Civil Twilight
Nautical Twilight
Astronomical Twilight
Moon
Length of Visible Light
Length of Day
Tomorrow will be .
, % of the Moon is Illuminated

Today's Extremes

State Highs State Lows

Community

WunderPhotos

Upload Photos

1,834,727 photos uploaded!

WunderBlogs® & News

Nearby

Air Quality

  Air Quality AQ Index Pollutant
Not available.

Snow Depth

Station Depth Elevation

Earthquake Activity

City Distance Mag. Time & Date
Minimum magnitude displayed is 2.5.

Coastal Water Temperatures

Place Temperature

Stations

Nearby Weather Stations

Station Location Temp. Windchill Dew Point Humidity Wind Precip. Elev Updated Type